Kostas — SW3504 — position and weather

sailwx.info

Track history (hours):
 
Tides and Currents Weather Stations Pressure Air Temp Water Temp Dewpoint Dewpoint Depression Visibility Wind Speed Wind Dir Waves Ship Positions

Kostas

Last reported at 2017-Sep-19 16:40 UTC. Time now 2017-Sep-19 20:39 UTC.
Position N 40°09' E 023°56'.

Length 22 m; draft 2.6 m.

Type: Fishing. MMSI: 239066000.

Date/timePositionNaut miles runAvg speedWind from/ knotsBaromVisibWave heightAir tempDewpointWater temp
2017-Sep-19 16:40N 40°09' E 023°56'2 9.8
2017-Sep-19 16:30N 40°08' E 023°58'3 0.1
2017-Sep-18 16:35N 40°10' E 023°54'1 9.4
2017-Sep-18 16:28N 40°10' E 023°55'4 0.2
2017-Sep-17 19:51N 40°12' E 023°50'0 0.2
2017-Sep-17 19:30N 40°12' E 023°50'0 0.3
2017-Sep-17 19:00N 40°12' E 023°50'0 0.3
2017-Sep-17 18:29N 40°12' E 023°50'0 0.2
2017-Sep-17 17:59N 40°12' E 023°50'1 1.0
2017-Sep-17 17:30N 40°11' E 023°50'0 0.6
2017-Sep-17 17:00N 40°11' E 023°50'3 5.7
2017-Sep-17 16:29N 40°10' E 023°54'4 7.7
2017-Sep-17 16:00N 40°08' E 023°58'0 0.0
2017-Sep-16 16:49N 40°08' E 023°57'3 5.7
2017-Sep-16 16:16N 40°06' E 024°00'1 3.3
2017-Sep-16 15:50N 40°05' E 024°00'4 0.2
2017-Sep-15 15:46N 40°01' E 024°01'1 2.1
2017-Sep-15 15:30N 40°01' E 024°02'4 6.7
2017-Sep-15 14:55N 40°05' E 024°00'0 0.0
2017-Sep-14 16:38N 40°04' E 024°00'0 0.5
2017-Sep-14 16:30N 40°05' E 024°00'8 0.3
2017-Sep-13 16:47N 40°10' E 023°54'3 9.5
2017-Sep-13 16:29N 40°08' E 023°57'3 0.1
2017-Sep-12 21:01N 40°10' E 023°54'0 9.9
2017-Sep-12 21:00N 40°10' E 023°54'3 4.9
2017-Sep-12 20:24N 40°11' E 023°50'0 0.2
2017-Sep-12 19:52N 40°11' E 023°50'0 0.7
2017-Sep-12 19:30N 40°11' E 023°50'0 0.1
2017-Sep-12 17:24N 40°11' E 023°50'0 0.6
2017-Sep-12 17:00N 40°11' E 023°50'5 9.3
2017-Sep-12 16:29N 40°09' E 023°56'9 0.2
2017-Sep-11 03:45N 40°05' E 024°06'3 9.5
2017-Sep-11 03:28N 40°05' E 024°10'4 9.4
2017-Sep-11 03:00N 40°04' E 024°15'17 9.5
2017-Sep-11 01:13N 40°02' E 024°37'4 9.8
2017-Sep-11 00:47N 40°01' E 024°43'3 9.7
2017-Sep-11 00:30N 40°01' E 024°46'  
Track history (hours):
 
Tides and Currents Weather Stations Pressure Air Temp Water Temp Dewpoint Dewpoint Depression Visibility Wind Speed Wind Dir Waves Ship Positions

Kostas

Last reported at 2017-Sep-19 16:40 UTC. Time now 2017-Sep-19 20:39 UTC.
Position N 40°09' E 023°56'.

Length 22 m; draft 2.6 m.

Type: Fishing. MMSI: 239066000.

Date/timePositionNaut miles runAvg speedWind from/ knotsBaromVisibWave heightAir tempDewpointWater temp
2017-Sep-19 16:40N 40°09' E 023°56'2 9.8
2017-Sep-19 16:30N 40°08' E 023°58'3 0.1
2017-Sep-18 16:35N 40°10' E 023°54'1 9.4
2017-Sep-18 16:28N 40°10' E 023°55'4 0.2
2017-Sep-17 19:51N 40°12' E 023°50'0 0.2
2017-Sep-17 19:30N 40°12' E 023°50'0 0.3
2017-Sep-17 19:00N 40°12' E 023°50'0 0.3
2017-Sep-17 18:29N 40°12' E 023°50'0 0.2
2017-Sep-17 17:59N 40°12' E 023°50'1 1.0
2017-Sep-17 17:30N 40°11' E 023°50'0 0.6
2017-Sep-17 17:00N 40°11' E 023°50'3 5.7
2017-Sep-17 16:29N 40°10' E 023°54'4 7.7
2017-Sep-17 16:00N 40°08' E 023°58'0 0.0
2017-Sep-16 16:49N 40°08' E 023°57'3 5.7
2017-Sep-16 16:16N 40°06' E 024°00'1 3.3
2017-Sep-16 15:50N 40°05' E 024°00'4 0.2
2017-Sep-15 15:46N 40°01' E 024°01'1 2.1
2017-Sep-15 15:30N 40°01' E 024°02'4 6.7
2017-Sep-15 14:55N 40°05' E 024°00'0 0.0
2017-Sep-14 16:38N 40°04' E 024°00'0 0.5
2017-Sep-14 16:30N 40°05' E 024°00'8 0.3
2017-Sep-13 16:47N 40°10' E 023°54'3 9.5
2017-Sep-13 16:29N 40°08' E 023°57'3 0.1
2017-Sep-12 21:01N 40°10' E 023°54'0 9.9
2017-Sep-12 21:00N 40°10' E 023°54'3 4.9
2017-Sep-12 20:24N 40°11' E 023°50'0 0.2
2017-Sep-12 19:52N 40°11' E 023°50'0 0.7
2017-Sep-12 19:30N 40°11' E 023°50'0 0.1
2017-Sep-12 17:24N 40°11' E 023°50'0 0.6
2017-Sep-12 17:00N 40°11' E 023°50'5 9.3
2017-Sep-12 16:29N 40°09' E 023°56'9 0.2
2017-Sep-11 03:45N 40°05' E 024°06'3 9.5
2017-Sep-11 03:28N 40°05' E 024°10'4 9.4
2017-Sep-11 03:00N 40°04' E 024°15'17 9.5
2017-Sep-11 01:13N 40°02' E 024°37'4 9.8
2017-Sep-11 00:47N 40°01' E 024°43'3 9.7
2017-Sep-11 00:30N 40°01' E 024°46'  

Dump ship's entire track history